Time;durP1;ratioP1;P1;durP2;ratioP2;P2;SDS_P1;SDS_P2;PMS_P1;PMS_P2;Temp;Humidity;BMP_temperature;BMP_pressure;BME280_temperature;BME280_humidity;BME280_pressure;Samples;Min_cycle;Max_cycle;Signal;HPM_P1;HPM_P2
2023/07/05 00:01:11;;;;;;;;;21.33;21.33;;;;;16.88;100.00;99587.50;6283856;20;2834747;-49
2023/07/05 00:03:41;;;;;;;;;21.33;19.67;;;;;16.80;100.00;99592.75;6313534;20;3571120;-51
2023/07/05 00:06:09;;;;;;;;;20.00;18.67;;;;;16.78;100.00;99591.19;6282390;20;3570057;-51
2023/07/05 00:08:37;;;;;;;;;19.33;18.67;;;;;16.67;100.00;99592.09;6279276;20;3570128;-49
2023/07/05 00:11:08;;;;;;;;;19.67;18.33;;;;;16.60;100.00;99590.91;6283943;20;3582607;-53
2023/07/05 00:13:36;;;;;;;;;15.00;13.50;;;;;16.63;100.00;99593.34;6281199;20;2802427;-47
2023/07/05 00:16:05;;;;;;;;;19.33;18.00;;;;;16.37;100.00;99599.19;6283850;20;3577813;-49
2023/07/05 00:18:33;;;;;;;;;13.00;11.50;;;;;16.66;100.00;99603.91;6277932;20;2496254;-44
2023/07/05 00:21:06;;;;;;;;;20.00;15.00;;;;;16.44;100.00;99605.81;6282012;20;2822186;-52
2023/07/05 00:23:36;;;;;;;;;19.00;16.50;;;;;16.36;100.00;99607.47;6279812;20;2833664;-45
2023/07/05 00:26:07;;;;;;;;;17.00;15.00;;;;;16.33;100.00;99596.91;6280277;20;2821124;-49
2023/07/05 00:28:35;;;;;;;;;19.67;18.67;;;;;16.41;100.00;99589.81;6281729;20;3571100;-46
2023/07/05 00:31:04;;;;;;;;;16.50;16.50;;;;;16.58;100.00;99601.03;6276219;20;2492002;-45
2023/07/05 00:33:33;;;;;;;;;18.00;17.50;;;;;16.76;100.00;99596.69;6280804;20;2835751;-45
2023/07/05 00:36:01;;;;;;;;;18.50;17.50;;;;;16.59;100.00;99605.47;6282792;20;2828371;-46
2023/07/05 00:38:29;;;;;;;;;20.50;18.00;;;;;16.55;100.00;99601.31;6280315;20;2833641;-49
2023/07/05 00:40:57;;;;;;;;;18.67;18.67;;;;;16.52;100.00;99596.16;6279064;20;2496142;-50
2023/07/05 00:43:25;;;;;;;;;20.00;16.67;;;;;16.42;100.00;99591.53;6313252;20;3565947;-46
2023/07/05 00:45:57;;;;;;;;;21.00;17.67;;;;;16.39;100.00;99590.94;6284760;20;3562787;-46
2023/07/05 00:48:50;;;;;;;;;17.00;17.00;;;;;16.39;100.00;99594.50;6312465;20;3569011;-49
2023/07/05 00:51:25;;;;;;;;;17.00;15.00;;;;;16.79;100.00;99593.75;6312814;20;2806909;-46
2023/07/05 00:53:58;;;;;;;;;20.00;16.00;;;;;16.76;100.00;99604.84;6276714;20;2835863;-49
2023/07/05 00:56:36;;;;;;;;;21.50;21.50;;;;;16.38;100.00;99606.34;6281279;20;2839836;-45
2023/07/05 00:59:07;;;;;;;;;19.00;18.67;;;;;16.18;100.00;99608.06;6282707;20;3572213;-49
2023/07/05 01:01:37;;;;;;;;;16.00;16.00;;;;;16.51;100.00;99611.56;6280619;20;2833617;-47
2023/07/05 01:04:24;;;;;;;;;18.50;17.50;;;;;16.56;100.00;99614.75;6282268;20;2833707;-45
2023/07/05 01:06:51;;;;;;;;;13.00;11.00;;;;;16.43;100.00;99604.09;6288233;20;2796609;-48
2023/07/05 01:09:20;;;;;;;;;18.50;15.50;;;;;15.97;100.00;99599.94;6279802;20;2825304;-45
2023/07/05 01:11:58;;;;;;;;;15.00;12.00;;;;;15.75;100.00;99591.94;6282519;20;3517967;-48
2023/07/05 01:15:16;;;;;;;;;13.50;11.50;;;;;15.51;100.00;99594.84;6309591;20;2491952;-46
2023/07/05 01:17:57;;;;;;;;;12.50;12.50;;;;;15.63;100.00;99604.63;6279804;20;2492668;-47
2023/07/05 01:20:32;;;;;;;;;16.33;11.67;;;;;15.58;100.00;99607.69;6275558;20;3512860;-48
2023/07/05 01:23:14;;;;;;;;;21.00;16.00;;;;;15.56;100.00;99609.69;6311223;20;2485745;-49
2023/07/05 01:26:32;;;;;;;;;15.50;15.50;;;;;15.47;100.00;99596.91;6276282;20;2500478;-53
2023/07/05 01:29:34;;;;;;;;;21.50;20.00;;;;;15.62;100.00;99597.50;6274397;20;2828421;-46
2023/07/05 01:32:13;;;;;;;;;19.00;17.50;;;;;15.57;100.00;99584.34;6280548;20;2491998;-49
2023/07/05 01:34:49;;;;;;;;;16.67;15.33;;;;;15.50;100.00;99593.94;6277000;20;3538935;-47
2023/07/05 01:37:32;;;;;;;;;18.50;16.00;;;;;15.66;100.00;99587.25;6278621;20;2487796;-49
2023/07/05 01:39:59;;;;;;;;;18.00;16.00;;;;;15.79;100.00;99596.09;6274801;20;2496149;-48
2023/07/05 01:42:32;;;;;;;;;14.50;14.00;;;;;15.85;100.00;99598.31;6278183;20;2801341;-47
2023/07/05 01:45:00;;;;;;;;;19.00;18.00;;;;;15.93;100.00;99595.78;6273397;20;2837891;-48
2023/07/05 01:47:57;;;;;;;;;16.50;15.50;;;;;16.25;100.00;99594.88;6276831;20;2829618;-49
2023/07/05 01:50:55;;;;;;;;;16.00;15.50;;;;;16.11;100.00;99585.19;6271054;20;2491938;-46
2023/07/05 01:54:14;;;;;;;;;20.00;17.00;;;;;16.01;100.00;99589.72;6272889;20;2496170;-46
2023/07/05 01:56:58;;;;;;;;;20.00;18.00;;;;;16.01;100.00;99582.44;6279923;20;3560714;-49
2023/07/05 01:59:36;;;;;;;;;16.00;16.00;;;;;15.95;100.00;99577.53;6308972;20;3552461;-51
2023/07/05 02:02:08;;;;;;;;;21.67;17.67;;;;;15.92;100.00;99579.66;6310792;20;3568133;-49
2023/07/05 02:04:36;;;;;;;;;19.50;17.50;;;;;15.78;100.00;99581.69;6278924;20;2833756;-48
2023/07/05 02:07:06;;;;;;;;;21.50;17.00;;;;;15.75;100.00;99578.41;6277316;20;2830646;-48
2023/07/05 02:09:38;;;;;;;;;19.50;16.50;;;;;15.96;100.00;99575.72;6278618;20;2835738;-48
2023/07/05 02:12:07;;;;;;;;;19.00;19.00;;;;;16.17;100.00;99570.31;6280496;20;2834745;-46
2023/07/05 02:14:39;;;;;;;;;15.50;15.00;;;;;16.10;100.00;99574.53;6278084;20;2811730;-47
2023/07/05 02:17:07;;;;;;;;;20.00;17.00;;;;;15.82;100.00;99570.59;6280271;20;2827478;-46
2023/07/05 02:19:36;;;;;;;;;14.00;14.00;;;;;15.73;100.00;99569.56;6278592;20;2807728;-47
2023/07/05 02:22:04;;;;;;;;;15.33;14.33;;;;;15.62;100.00;99575.00;6281022;20;3532705;-48
2023/07/05 02:24:32;;;;;;;;;24.00;18.00;;;;;15.78;100.00;99580.84;6311085;20;2837830;-48
2023/07/05 02:27:01;;;;;;;;;16.33;15.00;;;;;15.49;100.00;99581.41;6280094;20;2805466;-46
2023/07/05 02:29:32;;;;;;;;;17.67;14.67;;;;;15.36;100.00;99572.63;6309550;20;3544027;-46
2023/07/05 02:32:00;;;;;;;;;21.33;17.33;;;;;15.18;100.00;99566.88;6288562;20;2846112;-45
2023/07/05 02:34:29;;;;;;;;;18.00;15.00;;;;;15.51;100.00;99563.22;6315012;20;2807595;-47
2023/07/05 02:36:57;;;;;;;;;16.00;12.67;;;;;15.57;100.00;99562.69;6283890;20;3518102;-46
2023/07/05 02:39:25;;;;;;;;;20.33;18.00;;;;;15.41;100.00;99559.56;6315244;20;3561771;-46
2023/07/05 02:41:53;;;;;;;;;17.00;14.67;;;;;15.68;100.00;99558.22;6283399;20;3527423;-46
2023/07/05 02:44:22;;;;;;;;;15.33;15.33;;;;;15.76;100.00;99561.16;6283465;20;3542056;-49
2023/07/05 02:46:49;;;;;;;;;19.50;17.00;;;;;15.57;100.00;99557.28;6285643;20;2491936;-51
2023/07/05 02:49:17;;;;;;;;;15.67;15.33;;;;;15.51;100.00;99555.09;6284794;20;2823201;-47
2023/07/05 02:51:44;;;;;;;;;17.00;16.50;;;;;15.47;100.00;99556.34;6312759;20;2485687;-49
2023/07/05 02:54:13;;;;;;;;;17.67;14.00;;;;;15.27;100.00;99549.00;6282661;20;3519099;-45
2023/07/05 02:56:41;;;;;;;;;23.33;18.33;;;;;15.26;100.00;99558.13;6314133;20;3589808;-45
2023/07/05 02:59:09;;;;;;;;;17.00;17.00;;;;;15.54;100.00;99557.53;6286562;20;2826324;-49
2023/07/05 03:01:38;;;;;;;;;22.33;20.00;;;;;15.49;100.00;99559.78;6311756;20;2844028;-48
2023/07/05 03:04:06;;;;;;;;;21.00;19.00;;;;;15.40;100.00;99557.81;6315797;20;2841958;-48
2023/07/05 03:06:35;;;;;;;;;21.00;19.50;;;;;15.39;100.00;99556.13;6283860;20;2841952;-46
2023/07/05 03:09:03;;;;;;;;;30.50;25.50;;;;;15.10;100.00;99559.41;6283423;20;2843037;-46
2023/07/05 03:11:32;;;;;;;;;36.33;25.00;;;;;14.85;100.00;99554.28;6283553;20;3601288;-45
2023/07/05 03:14:00;;;;;;;;;24.33;20.00;;;;;15.09;100.00;99554.97;6317896;20;3571196;-48
2023/07/05 03:16:28;;;;;;;;;27.50;20.50;;;;;15.33;100.00;99553.94;6281475;20;2844110;-47
2023/07/05 03:18:58;;;;;;;;;30.33;22.33;;;;;15.03;100.00;99551.91;6281901;20;2855491;-49
2023/07/05 03:21:27;;;;;;;;;25.00;21.33;;;;;15.32;100.00;99552.19;6315748;20;3579443;-48
2023/07/05 03:23:55;;;;;;;;;25.67;23.33;;;;;15.40;100.00;99555.13;6315125;20;3566013;-47
2023/07/05 03:26:24;;;;;;;;;31.33;24.33;;;;;15.65;100.00;99553.94;6282354;20;3598203;-46
2023/07/05 03:28:53;;;;;;;;;28.67;23.67;;;;;15.36;100.00;99554.53;6314885;20;2845193;-48
2023/07/05 03:31:21;;;;;;;;;29.00;22.33;;;;;15.35;100.00;99557.38;6318436;20;3580461;-47
2023/07/05 03:33:52;;;;;;;;;30.33;24.33;;;;;15.50;100.00;99550.66;6285032;20;3592080;-50
2023/07/05 03:36:21;;;;;;;;;30.33;25.33;;;;;15.47;100.00;99558.19;6284349;20;3595021;-46
2023/07/05 03:38:51;;;;;;;;;32.67;28.33;;;;;15.62;100.00;99556.03;6283153;20;3597129;-51
2023/07/05 03:41:23;;;;;;;;;27.33;24.00;;;;;15.66;100.00;99558.34;6312796;20;3574337;-46
2023/07/05 03:43:57;;;;;;;;;31.00;27.33;;;;;15.93;100.00;99557.88;6283819;20;3602479;-54
2023/07/05 03:46:26;;;;;;;;;29.00;23.33;;;;;16.13;100.00;99555.28;6281503;20;3584738;-51
2023/07/05 03:48:54;;;;;;;;;21.50;19.50;;;;;16.16;100.00;99557.72;6279758;20;2835746;-50
2023/07/05 03:51:23;;;;;;;;;24.50;21.50;;;;;16.21;100.00;99559.03;6281404;20;2844107;-51
2023/07/05 03:53:55;;;;;;;;;24.67;23.33;;;;;16.28;100.00;99558.53;6284933;20;3577449;-51
2023/07/05 03:56:27;;;;;;;;;23.67;22.33;;;;;16.32;100.00;99557.25;6279206;20;2844066;-50
2023/07/05 03:58:55;;;;;;;;;17.67;17.67;;;;;16.35;100.00;99560.56;6314667;20;3565635;-48
2023/07/05 04:01:27;;;;;;;;;28.00;22.33;;;;;16.29;100.00;99557.53;6312362;20;2852549;-47
2023/07/05 04:03:58;;;;;;;;;24.33;20.67;;;;;16.38;100.00;99557.59;6316744;20;3578449;-50
2023/07/05 04:06:32;;;;;;;;;25.00;22.00;;;;;16.57;100.00;99561.38;6295133;20;3560863;-48
2023/07/05 04:09:01;;;;;;;;;17.00;15.00;;;;;16.53;100.00;99551.78;6280203;20;2827387;-46
2023/07/05 04:11:29;;;;;;;;;24.00;23.00;;;;;16.61;100.00;99558.28;6281212;20;2846112;-48
2023/07/05 04:13:58;;;;;;;;;25.50;21.50;;;;;16.72;100.00;99553.72;6280271;20;2837783;-46
2023/07/05 04:16:27;;;;;;;;;24.33;21.00;;;;;16.80;100.00;99562.94;6283033;20;3589858;-48
2023/07/05 04:18:56;;;;;;;;;25.50;22.00;;;;;16.96;100.00;99559.69;6292744;20;3463830;-46
2023/07/05 04:21:26;;;;;;;;;24.00;21.00;;;;;16.88;100.00;99554.97;6314245;20;3577477;-49
2023/07/05 04:23:55;;;;;;;;;25.67;20.33;;;;;17.11;100.00;99566.47;6281320;20;3580508;-46
2023/07/05 04:26:27;;;;;;;;;24.33;23.00;;;;;18.04;100.00;99575.09;6279140;20;3574782;-51
2023/07/05 04:28:56;;;;;;;;;22.00;20.33;;;;;17.94;100.00;99561.53;6314645;20;3578491;-46
2023/07/05 04:31:28;;;;;;;;;24.00;24.00;;;;;17.71;100.00;99566.34;6280076;20;3580504;-47
2023/07/05 04:34:00;;;;;;;;;21.00;18.67;;;;;17.66;100.00;99568.66;6283821;20;3562817;-48
2023/07/05 04:36:29;;;;;;;;;26.00;22.67;;;;;17.76;100.00;99572.22;6284010;20;3578374;-47
2023/07/05 04:39:00;;;;;;;;;25.00;21.00;;;;;17.81;100.00;99576.41;6275209;20;2841420;-52
2023/07/05 04:41:29;;;;;;;;;29.00;23.67;;;;;18.14;100.00;99575.94;6281980;20;3593068;-46
2023/07/05 04:43:57;;;;;;;;;23.67;22.00;;;;;18.50;100.00;99578.00;6283858;20;3566439;-49
2023/07/05 04:46:26;;;;;;;;;24.33;21.33;;;;;18.78;100.00;99576.22;6281886;20;2841017;-47
2023/07/05 04:48:54;;;;;;;;;25.33;24.00;;;;;18.35;100.00;99578.47;6314182;20;3573008;-52
2023/07/05 04:51:22;;;;;;;;;21.67;21.00;;;;;18.54;100.00;99582.16;6280679;20;3578365;-48
2023/07/05 04:53:50;;;;;;;;;21.67;19.00;;;;;18.60;100.00;99587.84;6280696;20;3572112;-46
2023/07/05 04:56:19;;;;;;;;;21.50;19.50;;;;;18.81;100.00;99584.94;6278752;20;2840998;-49
2023/07/05 04:58:48;;;;;;;;;22.67;22.00;;;;;18.75;100.00;99579.25;6279418;20;2838884;-48
2023/07/05 05:01:19;;;;;;;;;22.00;20.33;;;;;18.70;100.00;99576.94;6313139;20;3571143;-49
2023/07/05 05:03:48;;;;;;;;;23.00;20.67;;;;;18.84;100.00;99578.34;6279396;20;3575379;-52
2023/07/05 05:06:17;;;;;;;;;24.67;23.00;;;;;19.00;100.00;99583.97;6279535;20;3583591;-48
2023/07/05 05:08:45;;;;;;;;;19.00;19.00;;;;;18.97;100.00;99584.28;6280369;20;3572719;-46
2023/07/05 05:11:14;;;;;;;;;20.67;20.00;;;;;19.33;100.00;99588.97;6284738;20;3565279;-46
2023/07/05 05:13:42;;;;;;;;;23.33;22.67;;;;;19.27;100.00;99591.28;6282826;20;3579422;-49
2023/07/05 05:16:10;;;;;;;;;24.00;21.00;;;;;19.36;100.00;99584.06;6280825;20;2838845;-46
2023/07/05 05:18:38;;;;;;;;;20.67;19.33;;;;;19.55;100.00;99590.38;6281930;20;3574138;-48
2023/07/05 05:21:07;;;;;;;;;22.00;21.33;;;;;19.71;100.00;99593.31;6282993;20;3573201;-46
2023/07/05 05:23:36;;;;;;;;;24.00;20.67;;;;;19.75;100.00;99592.00;6280294;20;2842078;-50
2023/07/05 05:26:05;;;;;;;;;19.67;18.00;;;;;19.96;100.00;99591.69;6313517;20;3577539;-48
2023/07/05 05:28:33;;;;;;;;;21.00;18.33;;;;;20.18;100.00;99590.31;6269791;20;3571114;-50
2023/07/05 05:31:08;;;;;;;;;16.00;16.00;;;;;20.56;100.00;99588.19;6274002;20;2833717;-48
2023/07/05 05:33:37;;;;;;;;;15.00;14.00;;;;;20.55;100.00;99589.22;6276797;20;3532669;-48
2023/07/05 05:36:06;;;;;;;;;20.33;18.33;;;;;20.60;100.00;99600.53;6305471;20;2839911;-47
2023/07/05 05:38:35;;;;;;;;;20.67;19.33;;;;;20.68;100.00;99595.09;6307083;20;3577468;-46
2023/07/05 05:41:09;;;;;;;;;18.67;17.67;;;;;20.83;100.00;99596.22;6274632;20;2835697;-47
2023/07/05 05:43:38;;;;;;;;;24.67;18.33;;;;;20.88;100.00;99598.47;6307354;20;3582593;-48
2023/07/05 05:46:07;;;;;;;;;20.00;20.00;;;;;21.16;100.00;99604.53;6275829;20;3555500;-50
2023/07/05 05:48:39;;;;;;;;;24.67;21.00;;;;;21.34;100.00;99609.91;6273189;20;2848287;-49
2023/07/05 05:51:07;;;;;;;;;21.67;20.00;;;;;21.66;100.00;99609.16;6305395;20;3577364;-47
2023/07/05 05:53:36;;;;;;;;;23.00;22.33;;;;;21.60;100.00;99601.66;6277499;20;3576323;-52
2023/07/05 05:56:04;;;;;;;;;19.33;19.00;;;;;21.76;100.00;99602.72;6276455;20;2844049;-50
2023/07/05 05:58:33;;;;;;;;;22.33;19.33;;;;;21.99;100.00;99609.22;6307171;20;3592023;-51
2023/07/05 06:01:02;;;;;;;;;18.00;18.00;;;;;22.22;99.22;99603.09;6276791;20;3567973;-47
2023/07/05 06:03:30;;;;;;;;;19.67;19.67;;;;;22.22;99.65;99608.56;6276919;20;3581528;-51
2023/07/05 06:05:59;;;;;;;;;22.67;21.33;;;;;22.51;100.00;99602.53;6280554;20;3572140;-51
2023/07/05 06:08:28;;;;;;;;;20.67;20.00;;;;;22.38;99.24;99608.56;6281039;20;3577333;-50
2023/07/05 06:11:02;;;;;;;;;24.00;20.33;;;;;22.77;96.65;99607.78;6314017;20;3583636;-48
2023/07/05 06:13:32;;;;;;;;;17.00;16.67;;;;;22.50;97.31;99607.16;6283096;20;3564976;-53
2023/07/05 06:16:04;;;;;;;;;27.33;22.00;;;;;22.64;97.36;99597.38;6279061;20;2835732;-57
2023/07/05 06:18:35;;;;;;;;;18.00;17.67;;;;;23.07;96.20;99608.94;6314955;20;3573211;-57
2023/07/05 06:21:03;;;;;;;;;22.33;20.67;;;;;23.00;97.37;99608.78;6280232;20;3587758;-53
2023/07/05 06:23:32;;;;;;;;;24.67;21.67;;;;;23.39;94.52;99613.41;6282579;20;3577319;-55
2023/07/05 06:26:00;;;;;;;;;25.33;21.67;;;;;23.52;91.62;99601.88;6283810;20;3570106;-54
2023/07/05 06:28:28;;;;;;;;;22.33;22.00;;;;;23.67;90.72;99600.06;6278922;20;3575319;-54
2023/07/05 06:31:05;;;;;;;;;25.00;20.00;;;;;23.73;88.99;99595.78;6283277;20;3580702;-53
2023/07/05 06:33:35;;;;;;;;;23.00;21.67;;;;;23.82;88.06;99602.91;6279464;20;3573263;-53
2023/07/05 06:36:06;;;;;;;;;27.00;24.75;;;;;24.22;87.01;99602.78;6313973;20;3587770;-53
2023/07/05 06:38:35;;;;;;;;;24.33;23.33;;;;;24.17;86.86;99597.84;6310362;20;3577322;-55
2023/07/05 06:41:06;;;;;;;;;28.57;24.86;;;;;24.40;87.66;99597.81;6329644;20;3594049;-50
2023/07/05 06:43:35;;;;;;;;;23.00;23.00;;;;;24.87;86.22;99604.91;6278470;20;3582108;-56
2023/07/05 06:46:06;;;;;;;;;21.86;21.43;;;;;24.98;85.96;99598.06;6330744;20;3581559;-56
2023/07/05 06:48:35;;;;;;;;;25.67;23.67;;;;;25.09;84.96;99604.97;6283165;20;3577518;-51
2023/07/05 06:51:04;;;;;;;;;23.25;22.75;;;;;25.21;84.43;99602.66;6283478;20;3585751;-49
2023/07/05 06:53:32;;;;;;;;;25.33;22.67;;;;;25.85;82.99;99605.53;6313602;20;3586728;-51
2023/07/05 06:56:16;;;;;;;;;22.67;19.00;;;;;26.15;78.16;99599.94;6281656;20;3579511;-49
2023/07/05 06:58:47;;;;;;;;;25.00;23.33;;;;;25.86;81.21;99596.25;6278584;20;3581612;-52
2023/07/05 07:01:18;;;;;;;;;24.00;20.29;;;;;26.63;78.34;99598.22;6330376;20;3581619;-53
2023/07/05 07:03:46;;;;;;;;;26.33;23.00;;;;;25.96;80.07;99601.41;6280749;20;3590920;-51
2023/07/05 07:06:14;;;;;;;;;18.67;17.33;;;;;26.38;79.65;99597.78;6279979;20;3569042;-49
2023/07/05 07:08:43;;;;;;;;;21.33;20.00;;;;;25.84;81.06;99601.09;6282864;20;3569016;-52
2023/07/05 07:11:12;;;;;;;;;17.33;16.00;;;;;26.58;79.14;99599.91;6283073;20;3565890;-56
2023/07/05 07:13:41;;;;;;;;;18.67;16.33;;;;;26.73;77.06;99606.16;6280717;20;3571171;-52
2023/07/05 07:16:15;;;;;;;;;14.00;14.00;;;;;26.95;75.33;99603.31;6280467;20;2810678;-53
2023/07/05 07:18:49;;;;;;;;;16.67;15.67;;;;;27.29;74.08;99599.72;6280605;20;3557650;-52
2023/07/05 07:21:19;;;;;;;;;14.00;14.00;;;;;27.17;74.65;99602.19;6279904;20;2797290;-53
2023/07/05 07:23:48;;;;;;;;;16.00;15.00;;;;;27.62;73.40;99602.63;6278737;20;2807639;-53
2023/07/05 07:26:21;;;;;;;;;20.67;17.67;;;;;27.16;72.80;99608.75;6279617;20;3573417;-55
2023/07/05 07:28:53;;;;;;;;;16.67;15.00;;;;;27.19;74.19;99602.00;6272369;20;3552429;-57
2023/07/05 07:31:25;;;;;;;;;13.00;13.00;;;;;27.73;72.66;99599.25;6277299;20;2805620;-54
2023/07/05 07:33:54;;;;;;;;;13.67;13.67;;;;;28.08;68.33;99607.41;6280384;20;2487882;-54
2023/07/05 07:36:26;;;;;;;;;13.00;13.00;;;;;28.02;68.87;99608.25;6312315;20;3523280;-56
2023/07/05 07:38:55;;;;;;;;;16.33;13.67;;;;;27.74;67.38;99603.69;6306603;20;2483616;-51
2023/07/05 07:41:34;;;;;;;;;12.67;12.67;;;;;27.84;67.65;99610.75;6311765;20;2483626;-54
2023/07/05 07:44:08;;;;;;;;;14.00;11.00;;;;;28.19;68.41;99606.78;6313866;20;3519146;-53
2023/07/05 07:46:38;;;;;;;;;14.67;12.67;;;;;27.54;67.95;99614.69;6311463;20;3516985;-52
2023/07/05 07:49:09;;;;;;;;;11.67;11.67;;;;;28.36;68.72;99598.09;6305499;20;3510832;-53
2023/07/05 07:51:44;;;;;;;;;13.00;13.00;;;;;28.64;69.03;99609.78;6277151;20;2801473;-53
2023/07/05 07:54:16;;;;;;;;;13.00;10.67;;;;;28.52;68.11;99603.22;6273749;20;3520188;-54
2023/07/05 07:56:47;;;;;;;;;16.33;13.67;;;;;28.47;66.38;99591.94;6277566;20;3530615;-53
2023/07/05 07:59:16;;;;;;;;;14.33;14.33;;;;;28.37;68.39;99586.81;6281980;20;3534729;-54
2023/07/05 08:01:45;;;;;;;;;13.00;13.00;;;;;28.74;68.56;99597.44;6307048;20;2798284;-53
2023/07/05 08:04:15;;;;;;;;;16.00;12.00;;;;;28.49;67.73;99598.13;6274100;20;2808681;-49
2023/07/05 08:06:48;;;;;;;;;13.33;13.33;;;;;28.16;65.17;99592.56;6282228;20;2487813;-50
2023/07/05 08:09:26;;;;;;;;;14.50;13.50;;;;;28.34;67.36;99578.13;6308044;20;2802499;-52
2023/07/05 08:11:56;;;;;;;;;12.00;11.00;;;;;28.89;65.23;99581.47;6274114;20;3512767;-49
2023/07/05 08:14:25;;;;;;;;;11.00;11.00;;;;;28.64;63.81;99584.91;6275335;20;3515944;-52
2023/07/05 08:16:54;;;;;;;;;12.67;11.67;;;;;28.86;62.34;99588.28;6275307;20;3523189;-53
2023/07/05 08:19:22;;;;;;;;;17.33;13.67;;;;;29.12;60.53;99591.22;6273052;20;3538835;-53
2023/07/05 08:21:50;;;;;;;;;13.00;12.67;;;;;28.44;62.08;99589.63;6275029;20;3514844;-52
2023/07/05 08:24:19;;;;;;;;;12.67;12.00;;;;;28.64;61.73;99589.59;6276319;20;3518087;-53
2023/07/05 08:26:54;;;;;;;;;15.00;12.33;;;;;28.71;59.11;99595.97;6308915;20;3519107;-48
2023/07/05 08:29:23;;;;;;;;;9.00;9.00;;;;;28.78;61.11;99590.41;6304658;20;3474208;-52
2023/07/05 08:31:51;;;;;;;;;11.33;11.00;;;;;29.12;60.96;99591.22;6312749;20;3516911;-51
2023/07/05 08:34:19;;;;;;;;;16.00;14.00;;;;;29.31;59.01;99596.69;6309332;20;2485821;-51
2023/07/05 08:36:48;;;;;;;;;11.00;10.00;;;;;28.99;59.37;99604.00;6306889;20;3514990;-49
2023/07/05 08:39:16;;;;;;;;;14.50;11.50;;;;;28.59;60.36;99604.03;6270937;20;2791941;-52
2023/07/05 08:42:06;;;;;;;;;11.00;11.00;;;;;29.39;57.49;99598.34;6274546;20;3516037;-51
2023/07/05 08:44:56;;;;;;;;;15.00;15.00;;;;;28.86;59.02;99598.50;6276914;20;2646143;-51
2023/07/05 08:47:43;;;;;;;;;13.33;12.00;;;;;29.15;59.40;99604.59;6308645;20;3515998;-53
2023/07/05 08:50:43;;;;;;;;;10.33;10.33;;;;;28.98;59.94;99599.50;6311261;20;3515912;-55
2023/07/05 08:53:28;;;;;;;;;12.67;10.67;;;;;27.28;65.65;99590.59;6301983;20;3516063;-51
2023/07/05 08:56:17;;;;;;;;;12.67;11.33;;;;;28.19;62.06;99587.44;6281946;20;2792984;-54
2023/07/05 08:58:58;;;;;;;;;11.67;10.33;;;;;27.62;62.73;99587.94;6307442;20;3509635;-54
2023/07/05 09:01:30;;;;;;;;;15.50;13.00;;;;;26.25;67.13;99582.03;6303716;20;2794214;-51
2023/07/05 09:03:59;;;;;;;;;12.33;11.00;;;;;28.21;61.52;99590.00;6272463;20;3511757;-52
2023/07/05 09:07:05;;;;;;;;;13.33;11.67;;;;;29.10;60.21;99589.53;6279998;20;2500430;-52
2023/07/05 09:09:57;;;;;;;;;14.33;11.67;;;;;28.93;58.30;99590.19;6309100;20;2483632;-54
2023/07/05 09:12:39;;;;;;;;;16.00;13.00;;;;;28.99;60.22;99584.66;6310615;20;3518144;-55
2023/07/05 09:16:18;;;;;;;;;13.67;12.67;;;;;29.50;55.26;99589.38;6304345;20;2492064;-53
2023/07/05 09:19:01;;;;;;;;;12.00;12.00;;;;;29.43;59.46;99585.78;6302220;20;2483636;-52
2023/07/05 09:21:36;;;;;;;;;12.00;12.00;;;;;29.50;56.12;99588.53;6304800;20;3516986;-55
2023/07/05 09:24:35;;;;;;;;;13.00;13.00;;;;;29.38;55.10;99588.34;6272983;20;3500269;-57
2023/07/05 09:27:16;;;;;;;;;15.00;14.00;;;;;29.50;55.27;99583.81;6299400;20;2806592;-55
2023/07/05 09:30:13;;;;;;;;;12.00;12.00;;;;;29.75;56.21;99577.53;6271535;20;2786783;-52
2023/07/05 09:32:45;;;;;;;;;12.67;11.33;;;;;30.01;52.89;99586.75;6268970;20;3518003;-56
2023/07/05 09:35:19;;;;;;;;;13.00;12.00;;;;;29.49;55.67;99581.28;6305745;20;3530501;-49
2023/07/05 09:38:15;;;;;;;;;14.33;13.33;;;;;30.22;53.98;99586.38;6270853;20;3522176;-56
2023/07/05 09:40:52;;;;;;;;;14.33;11.00;;;;;29.88;52.69;99576.63;6302324;20;3522127;-54
2023/07/05 09:43:30;;;;;;;;;11.33;11.00;;;;;29.82;53.88;99581.13;6280098;20;2788957;-50
2023/07/05 09:46:22;;;;;;;;;11.33;10.67;;;;;29.64;51.04;99575.47;6305064;20;2483674;-55
2023/07/05 09:48:51;;;;;;;;;9.00;9.00;;;;;28.01;56.20;99556.84;6298654;20;3487783;-55
2023/07/05 09:51:19;;;;;;;;;11.33;11.33;;;;;27.46;56.98;99561.59;6302721;20;3518020;-51
2023/07/05 09:53:57;;;;;;;;;10.00;8.67;;;;;28.64;54.87;99568.31;6269822;20;3491956;-52
2023/07/05 09:56:28;;;;;;;;;14.67;13.00;;;;;29.05;54.68;99564.44;6303385;20;2483725;-55
2023/07/05 09:59:20;;;;;;;;;11.00;9.00;;;;;29.29;54.39;99571.16;6307933;20;2780636;-57
2023/07/05 10:01:53;;;;;;;;;11.00;9.67;;;;;29.27;53.83;99566.91;6307518;20;2789099;-53
2023/07/05 10:04:27;;;;;;;;;10.67;9.33;;;;;29.96;51.53;99573.56;6306272;20;2479473;-52
2023/07/05 10:06:56;;;;;;;;;6.33;6.33;;;;;29.56;53.88;99575.72;6306414;20;2748636;-53
2023/07/05 10:09:25;;;;;;;;;10.00;10.00;;;;;29.08;54.28;99569.53;6296214;20;3517979;-51
2023/07/05 10:11:57;;;;;;;;;10.67;10.67;;;;;29.11;54.25;99559.94;6303209;20;3517980;-56
2023/07/05 10:14:32;;;;;;;;;11.00;11.00;;;;;30.76;53.07;99568.25;6302038;20;3507570;-49
2023/07/05 10:17:06;;;;;;;;;8.67;8.67;;;;;30.21;50.50;99557.00;6303455;20;3474260;-55
2023/07/05 10:19:53;;;;;;;;;14.33;12.00;;;;;29.72;51.19;99565.00;6300484;20;3507680;-54
2023/07/05 10:22:34;;;;;;;;;12.00;9.00;;;;;29.88;52.08;99563.63;6303427;20;3482610;-55
2023/07/05 10:25:13;;;;;;;;;12.67;11.67;;;;;30.61;50.53;99564.97;6303645;20;3506587;-51
2023/07/05 10:27:46;;;;;;;;;12.67;11.00;;;;;30.77;50.69;99572.69;6304465;20;3513906;-51
2023/07/05 10:30:19;;;;;;;;;9.33;9.00;;;;;30.48;47.77;99554.03;6301611;20;3475290;-55
2023/07/05 10:33:16;;;;;;;;;9.33;9.33;;;;;30.50;50.77;99558.25;6302614;20;3483620;-56
2023/07/05 10:36:14;;;;;;;;;10.33;10.00;;;;;30.70;49.10;99551.66;6302441;20;3512783;-57
2023/07/05 10:38:45;;;;;;;;;10.00;9.00;;;;;30.44;50.01;99550.00;6276986;20;2765966;-53
2023/07/05 10:41:19;;;;;;;;;10.33;9.33;;;;;30.07;49.92;99538.78;6301486;20;3496171;-55
2023/07/05 10:44:04;;;;;;;;;10.67;10.67;;;;;29.62;51.47;99548.03;6305122;20;3516939;-53
2023/07/05 10:46:34;;;;;;;;;8.00;8.00;;;;;30.63;50.60;99547.03;6271236;20;3468042;-56
2023/07/05 10:49:12;;;;;;;;;11.00;8.67;;;;;30.86;50.29;99547.47;6299696;20;3475260;-53
2023/07/05 10:51:47;;;;;;;;;8.33;8.33;;;;;31.36;48.63;99547.28;6304448;20;3463859;-55
2023/07/05 10:54:42;;;;;;;;;12.67;10.67;;;;;30.78;50.24;99545.81;6302334;20;3517059;-54
2023/07/05 10:57:35;;;;;;;;;8.00;8.00;;;;;29.99;49.92;99537.16;6300852;20;3463934;-59
2023/07/05 11:00:23;;;;;;;;;11.00;9.67;;;;;30.12;49.04;99536.19;6301954;20;3505601;-55
2023/07/05 11:03:37;;;;;;;;;13.67;12.00;;;;;29.75;50.82;99530.50;6304216;20;3523028;-55
2023/07/05 11:06:07;;;;;;;;;9.33;9.33;;;;;30.07;50.57;99538.78;6277807;20;3483584;-56
2023/07/05 11:08:39;;;;;;;;;11.00;10.00;;;;;30.02;52.70;99530.28;6312686;20;2785679;-57
2023/07/05 11:11:24;;;;;;;;;8.33;6.67;;;;;29.51;48.45;99521.03;6310156;20;2743007;-51
2023/07/05 11:13:53;;;;;;;;;9.67;8.33;;;;;30.55;47.73;99524.34;6302662;20;3477518;-56
2023/07/05 11:16:25;;;;;;;;;7.33;7.33;;;;;30.19;46.71;99520.34;6315321;20;2748761;-59
2023/07/05 11:19:03;;;;;;;;;10.00;7.00;;;;;29.79;48.71;99509.63;6303526;20;3475239;-57
2023/07/05 11:21:49;;;;;;;;;8.67;8.67;;;;;29.35;48.49;99505.81;6306026;20;3461812;-58
2023/07/05 11:24:38;;;;;;;;;10.67;9.33;;;;;30.80;45.93;99510.41;6315622;20;2779463;-54
2023/07/05 11:27:29;;;;;;;;;11.00;9.33;;;;;30.44;45.79;99506.53;6303329;20;3502454;-59
2023/07/05 11:29:58;;;;;;;;;7.67;7.67;;;;;30.93;47.54;99506.66;6303616;20;3462758;-58